sensor_id;sensor_type;location;lat;lon;timestamp;temperature;humidity
7498;DHT22;3790;48.806;9.140;2023-05-21T00:00:48;16.00;99.90
7498;DHT22;3790;48.806;9.140;2023-05-21T00:05:50;16.00;99.90
7498;DHT22;3790;48.806;9.140;2023-05-21T00:10:51;16.00;99.90
7498;DHT22;3790;48.806;9.140;2023-05-21T00:15:51;16.00;99.90
7498;DHT22;3790;48.806;9.140;2023-05-21T00:20:52;15.90;99.90
7498;DHT22;3790;48.806;9.140;2023-05-21T00:25:53;15.80;99.90
7498;DHT22;3790;48.806;9.140;2023-05-21T00:30:54;15.80;99.90
7498;DHT22;3790;48.806;9.140;2023-05-21T00:35:55;15.80;99.90
7498;DHT22;3790;48.806;9.140;2023-05-21T00:40:56;15.70;99.90
7498;DHT22;3790;48.806;9.140;2023-05-21T00:45:56;15.60;99.90
7498;DHT22;3790;48.806;9.140;2023-05-21T00:50:58;15.60;99.90
7498;DHT22;3790;48.806;9.140;2023-05-21T00:55:59;15.60;99.90
7498;DHT22;3790;48.806;9.140;2023-05-21T01:01:00;15.60;99.90
7498;DHT22;3790;48.806;9.140;2023-05-21T01:06:07;15.50;99.90
7498;DHT22;3790;48.806;9.140;2023-05-21T01:11:09;15.40;99.90
7498;DHT22;3790;48.806;9.140;2023-05-21T01:16:10;15.40;99.90
7498;DHT22;3790;48.806;9.140;2023-05-21T01:21:12;15.30;99.90
7498;DHT22;3790;48.806;9.140;2023-05-21T01:26:16;15.40;99.90
7498;DHT22;3790;48.806;9.140;2023-05-21T01:32:03;15.30;99.90
7498;DHT22;3790;48.806;9.140;2023-05-21T01:42:14;15.20;99.90
7498;DHT22;3790;48.806;9.140;2023-05-21T01:47:15;15.20;99.90
7498;DHT22;3790;48.806;9.140;2023-05-21T01:52:17;15.20;99.90
7498;DHT22;3790;48.806;9.140;2023-05-21T01:57:18;15.20;99.90
7498;DHT22;3790;48.806;9.140;2023-05-21T02:02:18;15.10;99.90
7498;DHT22;3790;48.806;9.140;2023-05-21T02:07:19;15.10;99.90
7498;DHT22;3790;48.806;9.140;2023-05-21T02:12:19;15.00;99.90
7498;DHT22;3790;48.806;9.140;2023-05-21T02:17:20;15.00;99.90
7498;DHT22;3790;48.806;9.140;2023-05-21T02:22:21;15.00;99.90
7498;DHT22;3790;48.806;9.140;2023-05-21T02:27:21;14.80;99.90
7498;DHT22;3790;48.806;9.140;2023-05-21T02:32:22;14.80;99.90
7498;DHT22;3790;48.806;9.140;2023-05-21T02:37:25;14.80;99.90
7498;DHT22;3790;48.806;9.140;2023-05-21T02:42:26;14.90;99.90
7498;DHT22;3790;48.806;9.140;2023-05-21T02:47:27;15.00;99.90
7498;DHT22;3790;48.806;9.140;2023-05-21T02:52:27;14.90;99.90
7498;DHT22;3790;48.806;9.140;2023-05-21T02:57:28;14.80;99.90
7498;DHT22;3790;48.806;9.140;2023-05-21T03:02:29;14.80;99.90
7498;DHT22;3790;48.806;9.140;2023-05-21T03:07:29;14.80;99.90
7498;DHT22;3790;48.806;9.140;2023-05-21T03:12:30;14.80;99.90
7498;DHT22;3790;48.806;9.140;2023-05-21T03:17:31;14.70;99.90
7498;DHT22;3790;48.806;9.140;2023-05-21T03:22:31;14.60;99.90
7498;DHT22;3790;48.806;9.140;2023-05-21T03:27:32;14.50;99.90
7498;DHT22;3790;48.806;9.140;2023-05-21T03:32:32;14.50;99.90
7498;DHT22;3790;48.806;9.140;2023-05-21T03:37:36;14.50;99.90
7498;DHT22;3790;48.806;9.140;2023-05-21T03:42:37;14.40;99.90
7498;DHT22;3790;48.806;9.140;2023-05-21T03:47:37;14.40;99.90
7498;DHT22;3790;48.806;9.140;2023-05-21T03:52:38;14.40;99.90
7498;DHT22;3790;48.806;9.140;2023-05-21T03:57:39;14.30;99.90
7498;DHT22;3790;48.806;9.140;2023-05-21T04:02:40;14.30;99.90
7498;DHT22;3790;48.806;9.140;2023-05-21T04:07:40;14.30;99.90
7498;DHT22;3790;48.806;9.140;2023-05-21T04:12:42;14.30;99.90
7498;DHT22;3790;48.806;9.140;2023-05-21T04:17:42;14.30;99.90
7498;DHT22;3790;48.806;9.140;2023-05-21T04:22:44;14.20;99.90
7498;DHT22;3790;48.806;9.140;2023-05-21T04:27:45;14.30;99.90
7498;DHT22;3790;48.806;9.140;2023-05-21T04:32:46;14.40;99.90
7498;DHT22;3790;48.806;9.140;2023-05-21T04:37:47;14.40;99.90
7498;DHT22;3790;48.806;9.140;2023-05-21T04:42:48;14.30;99.90
7498;DHT22;3790;48.806;9.140;2023-05-21T04:47:50;14.40;99.90
7498;DHT22;3790;48.806;9.140;2023-05-21T04:52:50;14.50;99.90
7498;DHT22;3790;48.806;9.140;2023-05-21T04:57:53;14.50;99.90
7498;DHT22;3790;48.806;9.140;2023-05-21T05:02:54;14.50;99.90
7498;DHT22;3790;48.806;9.140;2023-05-21T05:07:55;14.50;99.90
7498;DHT22;3790;48.806;9.140;2023-05-21T05:12:57;14.50;99.90
7498;DHT22;3790;48.806;9.140;2023-05-21T05:17:57;14.50;99.90
7498;DHT22;3790;48.806;9.140;2023-05-21T05:22:58;14.70;99.90
7498;DHT22;3790;48.806;9.140;2023-05-21T05:27:58;14.60;99.90
7498;DHT22;3790;48.806;9.140;2023-05-21T05:32:59;14.70;99.90
7498;DHT22;3790;48.806;9.140;2023-05-21T05:38:00;14.70;99.90
7498;DHT22;3790;48.806;9.140;2023-05-21T05:43:00;14.90;99.90
7498;DHT22;3790;48.806;9.140;2023-05-21T05:48:01;15.00;99.90
7498;DHT22;3790;48.806;9.140;2023-05-21T05:53:01;15.10;99.90
7498;DHT22;3790;48.806;9.140;2023-05-21T05:58:02;15.40;99.90
7498;DHT22;3790;48.806;9.140;2023-05-21T06:03:02;15.60;99.90
7498;DHT22;3790;48.806;9.140;2023-05-21T06:08:03;15.80;99.90
7498;DHT22;3790;48.806;9.140;2023-05-21T06:13:04;15.90;99.90
7498;DHT22;3790;48.806;9.140;2023-05-21T06:18:04;15.90;99.90
7498;DHT22;3790;48.806;9.140;2023-05-21T06:23:05;15.70;99.90
7498;DHT22;3790;48.806;9.140;2023-05-21T06:28:08;15.70;99.90
7498;DHT22;3790;48.806;9.140;2023-05-21T06:33:08;15.80;99.90
7498;DHT22;3790;48.806;9.140;2023-05-21T06:38:09;15.90;99.90
7498;DHT22;3790;48.806;9.140;2023-05-21T06:43:09;16.20;99.90
7498;DHT22;3790;48.806;9.140;2023-05-21T06:48:10;16.50;99.90
7498;DHT22;3790;48.806;9.140;2023-05-21T06:53:11;16.50;99.90
7498;DHT22;3790;48.806;9.140;2023-05-21T06:58:15;16.60;99.90
7498;DHT22;3790;48.806;9.140;2023-05-21T07:03:16;16.50;99.90
7498;DHT22;3790;48.806;9.140;2023-05-21T07:08:16;16.60;99.90
7498;DHT22;3790;48.806;9.140;2023-05-21T07:13:19;16.70;99.90
7498;DHT22;3790;48.806;9.140;2023-05-21T07:18:19;16.90;99.90
7498;DHT22;3790;48.806;9.140;2023-05-21T07:23:20;17.10;99.90
7498;DHT22;3790;48.806;9.140;2023-05-21T07:28:20;17.40;99.90
7498;DHT22;3790;48.806;9.140;2023-05-21T07:33:21;17.50;99.90
7498;DHT22;3790;48.806;9.140;2023-05-21T07:38:22;17.70;99.90
7498;DHT22;3790;48.806;9.140;2023-05-21T07:43:22;18.00;99.90
7498;DHT22;3790;48.806;9.140;2023-05-21T07:48:23;18.30;99.90
7498;DHT22;3790;48.806;9.140;2023-05-21T07:53:24;18.60;99.90
7498;DHT22;3790;48.806;9.140;2023-05-21T07:58:24;18.70;99.90
7498;DHT22;3790;48.806;9.140;2023-05-21T08:03:25;19.00;99.90
7498;DHT22;3790;48.806;9.140;2023-05-21T08:08:27;19.20;99.90
7498;DHT22;3790;48.806;9.140;2023-05-21T08:13:27;19.10;99.90
7498;DHT22;3790;48.806;9.140;2023-05-21T08:18:28;19.40;99.90
7498;DHT22;3790;48.806;9.140;2023-05-21T08:23:28;19.70;99.90
7498;DHT22;3790;48.806;9.140;2023-05-21T08:28:31;19.70;99.90
7498;DHT22;3790;48.806;9.140;2023-05-21T08:33:34;19.90;99.90
7498;DHT22;3790;48.806;9.140;2023-05-21T08:38:36;20.40;99.90
7498;DHT22;3790;48.806;9.140;2023-05-21T08:43:37;20.50;99.90
7498;DHT22;3790;48.806;9.140;2023-05-21T08:48:42;20.70;99.90
7498;DHT22;3790;48.806;9.140;2023-05-21T08:53:42;20.80;99.90
7498;DHT22;3790;48.806;9.140;2023-05-21T08:58:45;20.90;99.90
7498;DHT22;3790;48.806;9.140;2023-05-21T09:03:46;20.70;99.90
7498;DHT22;3790;48.806;9.140;2023-05-21T09:09:01;20.40;99.90
7498;DHT22;3790;48.806;9.140;2023-05-21T09:14:04;20.60;99.90
7498;DHT22;3790;48.806;9.140;2023-05-21T09:19:05;20.90;99.90
7498;DHT22;3790;48.806;9.140;2023-05-21T09:24:08;20.90;99.90
7498;DHT22;3790;48.806;9.140;2023-05-21T09:29:12;21.00;99.90
7498;DHT22;3790;48.806;9.140;2023-05-21T09:34:12;20.80;99.90
7498;DHT22;3790;48.806;9.140;2023-05-21T09:39:28;20.70;99.90
7498;DHT22;3790;48.806;9.140;2023-05-21T09:44:29;20.90;99.90
7498;DHT22;3790;48.806;9.140;2023-05-21T09:49:29;21.00;99.90
7498;DHT22;3790;48.806;9.140;2023-05-21T09:54:32;21.20;99.90
7498;DHT22;3790;48.806;9.140;2023-05-21T09:59:39;21.50;99.90
7498;DHT22;3790;48.806;9.140;2023-05-21T10:04:41;21.50;99.90
7498;DHT22;3790;48.806;9.140;2023-05-21T10:09:45;21.80;99.90
7498;DHT22;3790;48.806;9.140;2023-05-21T10:14:58;22.00;99.90
7498;DHT22;3790;48.806;9.140;2023-05-21T10:20:01;22.40;99.90
7498;DHT22;3790;48.806;9.140;2023-05-21T10:25:02;22.60;99.90
7498;DHT22;3790;48.806;9.140;2023-05-21T10:30:05;23.00;99.90
7498;DHT22;3790;48.806;9.140;2023-05-21T10:35:06;23.00;99.90
7498;DHT22;3790;48.806;9.140;2023-05-21T10:40:08;23.10;99.90
7498;DHT22;3790;48.806;9.140;2023-05-21T10:56:13;23.30;99.90
7498;DHT22;3790;48.806;9.140;2023-05-21T11:01:17;23.50;99.90
7498;DHT22;3790;48.806;9.140;2023-05-21T11:06:23;23.30;99.90
7498;DHT22;3790;48.806;9.140;2023-05-21T11:11:39;23.80;99.90
7498;DHT22;3790;48.806;9.140;2023-05-21T11:16:44;24.60;99.90
7498;DHT22;3790;48.806;9.140;2023-05-21T11:21:51;25.80;99.90
7498;DHT22;3790;48.806;9.140;2023-05-21T11:32:01;26.10;99.90
7498;DHT22;3790;48.806;9.140;2023-05-21T11:42:31;25.80;99.90
7498;DHT22;3790;48.806;9.140;2023-05-21T11:47:32;26.40;99.90
7498;DHT22;3790;48.806;9.140;2023-05-21T11:52:35;26.90;99.90
7498;DHT22;3790;48.806;9.140;2023-05-21T11:57:36;26.90;99.90
7498;DHT22;3790;48.806;9.140;2023-05-21T12:02:36;27.50;99.90
7498;DHT22;3790;48.806;9.140;2023-05-21T12:07:37;27.40;99.90
7498;DHT22;3790;48.806;9.140;2023-05-21T12:12:38;26.70;99.90
7498;DHT22;3790;48.806;9.140;2023-05-21T12:17:38;26.20;99.90
7498;DHT22;3790;48.806;9.140;2023-05-21T12:22:41;26.00;99.90
7498;DHT22;3790;48.806;9.140;2023-05-21T12:27:42;26.00;99.90
7498;DHT22;3790;48.806;9.140;2023-05-21T12:32:44;26.20;99.90
7498;DHT22;3790;48.806;9.140;2023-05-21T12:37:44;26.80;99.90
7498;DHT22;3790;48.806;9.140;2023-05-21T12:42:45;26.80;99.90
7498;DHT22;3790;48.806;9.140;2023-05-21T12:47:48;26.70;99.90
7498;DHT22;3790;48.806;9.140;2023-05-21T12:52:57;26.90;99.90
7498;DHT22;3790;48.806;9.140;2023-05-21T12:58:02;26.70;99.90
7498;DHT22;3790;48.806;9.140;2023-05-21T13:03:04;26.70;99.90
7498;DHT22;3790;48.806;9.140;2023-05-21T13:08:05;26.60;99.90
7498;DHT22;3790;48.806;9.140;2023-05-21T13:13:05;26.80;99.90
7498;DHT22;3790;48.806;9.140;2023-05-21T13:18:06;26.90;99.90
7498;DHT22;3790;48.806;9.140;2023-05-21T13:23:06;26.80;99.90
7498;DHT22;3790;48.806;9.140;2023-05-21T13:28:07;26.50;99.90
7498;DHT22;3790;48.806;9.140;2023-05-21T13:33:09;26.40;99.90
7498;DHT22;3790;48.806;9.140;2023-05-21T13:38:11;27.20;99.90
7498;DHT22;3790;48.806;9.140;2023-05-21T13:43:11;27.30;99.90
7498;DHT22;3790;48.806;9.140;2023-05-21T13:48:12;27.60;99.90
7498;DHT22;3790;48.806;9.140;2023-05-21T13:53:12;27.60;99.90
7498;DHT22;3790;48.806;9.140;2023-05-21T13:58:13;28.10;97.40
7498;DHT22;3790;48.806;9.140;2023-05-21T14:03:13;28.20;97.20
7498;DHT22;3790;48.806;9.140;2023-05-21T14:08:14;28.00;96.50
7498;DHT22;3790;48.806;9.140;2023-05-21T14:13:19;28.80;96.10
7498;DHT22;3790;48.806;9.140;2023-05-21T14:18:20;28.90;95.80
7498;DHT22;3790;48.806;9.140;2023-05-21T14:23:20;28.90;95.30
7498;DHT22;3790;48.806;9.140;2023-05-21T14:28:21;29.60;94.50
7498;DHT22;3790;48.806;9.140;2023-05-21T14:33:21;30.30;94.00
7498;DHT22;3790;48.806;9.140;2023-05-21T14:38:22;30.70;92.70
7498;DHT22;3790;48.806;9.140;2023-05-21T14:43:25;31.40;92.00
7498;DHT22;3790;48.806;9.140;2023-05-21T14:48:25;32.20;91.50
7498;DHT22;3790;48.806;9.140;2023-05-21T14:53:26;32.60;86.60
7498;DHT22;3790;48.806;9.140;2023-05-21T14:58:26;32.30;83.10
7498;DHT22;3790;48.806;9.140;2023-05-21T15:03:27;31.50;83.30
7498;DHT22;3790;48.806;9.140;2023-05-21T15:08:30;31.10;81.00
7498;DHT22;3790;48.806;9.140;2023-05-21T15:13:30;29.90;82.20
7498;DHT22;3790;48.806;9.140;2023-05-21T15:18:31;28.80;83.90
7498;DHT22;3790;48.806;9.140;2023-05-21T15:23:32;28.20;81.10
7498;DHT22;3790;48.806;9.140;2023-05-21T15:28:32;28.20;80.80
7498;DHT22;3790;48.806;9.140;2023-05-21T15:33:33;28.10;80.50
7498;DHT22;3790;48.806;9.140;2023-05-21T15:38:33;28.00;78.80
7498;DHT22;3790;48.806;9.140;2023-05-21T15:43:36;28.40;78.80
7498;DHT22;3790;48.806;9.140;2023-05-21T15:48:40;29.00;81.90
7498;DHT22;3790;48.806;9.140;2023-05-21T15:53:41;30.00;82.70
7498;DHT22;3790;48.806;9.140;2023-05-21T15:58:41;29.60;83.80
7498;DHT22;3790;48.806;9.140;2023-05-21T16:03:45;29.70;84.10
7498;DHT22;3790;48.806;9.140;2023-05-21T16:08:48;29.60;83.80
7498;DHT22;3790;48.806;9.140;2023-05-21T16:13:48;30.00;84.70
7498;DHT22;3790;48.806;9.140;2023-05-21T16:18:49;30.10;86.50
7498;DHT22;3790;48.806;9.140;2023-05-21T16:23:52;29.90;85.80
7498;DHT22;3790;48.806;9.140;2023-05-21T16:28:53;31.20;85.30
7498;DHT22;3790;48.806;9.140;2023-05-21T16:33:53;31.90;82.30
7498;DHT22;3790;48.806;9.140;2023-05-21T16:38:54;31.30;82.30
7498;DHT22;3790;48.806;9.140;2023-05-21T16:43:54;31.00;84.60
7498;DHT22;3790;48.806;9.140;2023-05-21T16:48:55;30.80;83.60
7498;DHT22;3790;48.806;9.140;2023-05-21T16:53:55;29.70;85.60
7498;DHT22;3790;48.806;9.140;2023-05-21T16:58:56;29.00;88.00
7498;DHT22;3790;48.806;9.140;2023-05-21T17:03:56;28.70;88.90
7498;DHT22;3790;48.806;9.140;2023-05-21T17:08:57;28.30;90.00
7498;DHT22;3790;48.806;9.140;2023-05-21T17:13:57;27.90;91.20
7498;DHT22;3790;48.806;9.140;2023-05-21T17:18:58;27.90;93.60
7498;DHT22;3790;48.806;9.140;2023-05-21T17:23:59;27.80;93.70
7498;DHT22;3790;48.806;9.140;2023-05-21T17:28:59;27.70;94.30
7498;DHT22;3790;48.806;9.140;2023-05-21T17:34:00;27.60;94.60
7498;DHT22;3790;48.806;9.140;2023-05-21T17:39:00;27.00;95.30
7498;DHT22;3790;48.806;9.140;2023-05-21T17:44:01;26.70;95.90
7498;DHT22;3790;48.806;9.140;2023-05-21T17:49:01;26.40;97.00
7498;DHT22;3790;48.806;9.140;2023-05-21T17:54:03;25.80;99.60
7498;DHT22;3790;48.806;9.140;2023-05-21T17:59:07;25.40;99.90
7498;DHT22;3790;48.806;9.140;2023-05-21T18:04:08;24.90;99.90
7498;DHT22;3790;48.806;9.140;2023-05-21T18:09:11;24.30;99.90
7498;DHT22;3790;48.806;9.140;2023-05-21T18:14:13;23.80;99.90
7498;DHT22;3790;48.806;9.140;2023-05-21T18:19:14;23.30;99.90
7498;DHT22;3790;48.806;9.140;2023-05-21T18:24:14;23.00;99.90
7498;DHT22;3790;48.806;9.140;2023-05-21T18:29:15;22.80;99.90
7498;DHT22;3790;48.806;9.140;2023-05-21T18:34:15;22.50;99.90
7498;DHT22;3790;48.806;9.140;2023-05-21T18:39:16;22.30;99.90
7498;DHT22;3790;48.806;9.140;2023-05-21T18:44:17;22.00;99.90
7498;DHT22;3790;48.806;9.140;2023-05-21T18:49:17;21.70;99.90
7498;DHT22;3790;48.806;9.140;2023-05-21T18:54:19;21.60;99.90
7498;DHT22;3790;48.806;9.140;2023-05-21T18:59:19;21.40;99.90
7498;DHT22;3790;48.806;9.140;2023-05-21T19:04:20;21.30;99.90
7498;DHT22;3790;48.806;9.140;2023-05-21T19:09:20;21.20;99.90
7498;DHT22;3790;48.806;9.140;2023-05-21T19:14:21;21.00;99.90
7498;DHT22;3790;48.806;9.140;2023-05-21T19:19:21;21.00;99.90
7498;DHT22;3790;48.806;9.140;2023-05-21T19:24:22;20.90;99.90
7498;DHT22;3790;48.806;9.140;2023-05-21T19:29:23;20.90;99.90
7498;DHT22;3790;48.806;9.140;2023-05-21T19:34:23;20.80;99.90
7498;DHT22;3790;48.806;9.140;2023-05-21T19:39:24;20.70;99.90
7498;DHT22;3790;48.806;9.140;2023-05-21T19:44:24;20.60;99.90
7498;DHT22;3790;48.806;9.140;2023-05-21T19:49:25;20.60;99.90
7498;DHT22;3790;48.806;9.140;2023-05-21T19:54:26;20.50;99.90
7498;DHT22;3790;48.806;9.140;2023-05-21T19:59:26;20.50;99.90
7498;DHT22;3790;48.806;9.140;2023-05-21T20:04:27;20.50;99.90
7498;DHT22;3790;48.806;9.140;2023-05-21T20:09:28;20.50;99.90
7498;DHT22;3790;48.806;9.140;2023-05-21T20:14:28;20.40;99.90
7498;DHT22;3790;48.806;9.140;2023-05-21T20:19:28;20.30;99.90
7498;DHT22;3790;48.806;9.140;2023-05-21T20:24:29;20.20;99.90
7498;DHT22;3790;48.806;9.140;2023-05-21T20:29:30;20.20;99.90
7498;DHT22;3790;48.806;9.140;2023-05-21T20:34:31;20.10;99.90
7498;DHT22;3790;48.806;9.140;2023-05-21T20:39:32;20.00;99.90
7498;DHT22;3790;48.806;9.140;2023-05-21T20:44:32;20.00;99.90
7498;DHT22;3790;48.806;9.140;2023-05-21T20:49:33;19.90;99.90
7498;DHT22;3790;48.806;9.140;2023-05-21T20:54:34;19.60;99.90
7498;DHT22;3790;48.806;9.140;2023-05-21T20:59:34;19.30;99.90
7498;DHT22;3790;48.806;9.140;2023-05-21T21:04:35;19.50;99.90
7498;DHT22;3790;48.806;9.140;2023-05-21T21:09:37;19.60;99.90
7498;DHT22;3790;48.806;9.140;2023-05-21T21:14:38;19.70;99.90
7498;DHT22;3790;48.806;9.140;2023-05-21T21:19:39;19.50;99.90
7498;DHT22;3790;48.806;9.140;2023-05-21T21:24:40;19.10;99.90
7498;DHT22;3790;48.806;9.140;2023-05-21T21:29:40;18.90;99.90
7498;DHT22;3790;48.806;9.140;2023-05-21T21:34:41;19.10;99.90
7498;DHT22;3790;48.806;9.140;2023-05-21T21:39:41;19.30;99.90
7498;DHT22;3790;48.806;9.140;2023-05-21T21:44:42;19.20;99.90
7498;DHT22;3790;48.806;9.140;2023-05-21T21:49:43;18.90;99.90
7498;DHT22;3790;48.806;9.140;2023-05-21T21:54:43;18.50;99.90
7498;DHT22;3790;48.806;9.140;2023-05-21T21:59:44;18.40;99.90
7498;DHT22;3790;48.806;9.140;2023-05-21T22:04:44;18.40;99.90
7498;DHT22;3790;48.806;9.140;2023-05-21T22:09:45;18.40;99.90
7498;DHT22;3790;48.806;9.140;2023-05-21T22:14:46;18.50;99.90
7498;DHT22;3790;48.806;9.140;2023-05-21T22:19:46;18.40;99.90
7498;DHT22;3790;48.806;9.140;2023-05-21T22:24:47;18.30;99.90
7498;DHT22;3790;48.806;9.140;2023-05-21T22:29:48;18.20;99.90
7498;DHT22;3790;48.806;9.140;2023-05-21T22:34:48;18.00;99.90
7498;DHT22;3790;48.806;9.140;2023-05-21T22:39:49;17.90;99.90
7498;DHT22;3790;48.806;9.140;2023-05-21T22:44:49;17.80;99.90
7498;DHT22;3790;48.806;9.140;2023-05-21T22:49:50;17.80;99.90
7498;DHT22;3790;48.806;9.140;2023-05-21T22:54:52;17.70;99.90
7498;DHT22;3790;48.806;9.140;2023-05-21T22:59:53;17.50;99.90
7498;DHT22;3790;48.806;9.140;2023-05-21T23:04:53;17.40;99.90
7498;DHT22;3790;48.806;9.140;2023-05-21T23:09:54;17.40;99.90
7498;DHT22;3790;48.806;9.140;2023-05-21T23:14:55;17.30;99.90
7498;DHT22;3790;48.806;9.140;2023-05-21T23:19:55;17.30;99.90
7498;DHT22;3790;48.806;9.140;2023-05-21T23:24:56;17.40;99.90
7498;DHT22;3790;48.806;9.140;2023-05-21T23:29:57;17.30;99.90
7498;DHT22;3790;48.806;9.140;2023-05-21T23:34:57;17.20;99.90
7498;DHT22;3790;48.806;9.140;2023-05-21T23:39:58;17.00;99.90
7498;DHT22;3790;48.806;9.140;2023-05-21T23:44:58;16.90;99.90
7498;DHT22;3790;48.806;9.140;2023-05-21T23:49:59;16.90;99.90
7498;DHT22;3790;48.806;9.140;2023-05-21T23:54:59;16.80;99.90
